sensor_id;sensor_type;location;lat;lon;timestamp;pressure;altitude;pressure_sealevel;temperature;humidity
16094;BME280;8151;47.824;12.092;2022-07-29T00:01:41;96253.19;;;21.85;62.26
16094;BME280;8151;47.824;12.092;2022-07-29T00:04:10;96248.53;;;21.80;62.47
16094;BME280;8151;47.824;12.092;2022-07-29T00:06:40;96241.19;;;21.76;62.68
16094;BME280;8151;47.824;12.092;2022-07-29T00:09:10;96248.94;;;21.72;62.78
16094;BME280;8151;47.824;12.092;2022-07-29T00:11:39;96245.66;;;21.70;63.00
16094;BME280;8151;47.824;12.092;2022-07-29T00:14:07;96239.69;;;21.68;63.06
16094;BME280;8151;47.824;12.092;2022-07-29T00:16:36;96247.66;;;21.63;63.20
16094;BME280;8151;47.824;12.092;2022-07-29T00:19:05;96247.03;;;21.56;63.30
16094;BME280;8151;47.824;12.092;2022-07-29T00:21:34;96239.66;;;21.51;63.45
16094;BME280;8151;47.824;12.092;2022-07-29T00:24:03;96241.19;;;21.47;63.73
16094;BME280;8151;47.824;12.092;2022-07-29T00:26:33;96235.22;;;21.45;63.81
16094;BME280;8151;47.824;12.092;2022-07-29T00:29:03;96236.03;;;21.46;63.95
16094;BME280;8151;47.824;12.092;2022-07-29T00:31:52;96238.72;;;21.46;63.92
16094;BME280;8151;47.824;12.092;2022-07-29T00:34:20;96255.97;;;21.45;64.08
16094;BME280;8151;47.824;12.092;2022-07-29T00:37:06;96237.94;;;21.33;64.44
16094;BME280;8151;47.824;12.092;2022-07-29T00:39:35;96230.59;;;21.29;64.72
16094;BME280;8151;47.824;12.092;2022-07-29T00:42:05;96227.31;;;21.27;64.96
16094;BME280;8151;47.824;12.092;2022-07-29T00:44:37;96225.44;;;21.27;64.86
16094;BME280;8151;47.824;12.092;2022-07-29T00:47:06;96219.50;;;21.25;64.92
16094;BME280;8151;47.824;12.092;2022-07-29T00:49:35;96216.22;;;21.23;65.19
16094;BME280;8151;47.824;12.092;2022-07-29T00:52:07;96222.19;;;21.25;65.12
16094;BME280;8151;47.824;12.092;2022-07-29T00:54:38;96225.44;;;21.27;65.15
16094;BME280;8151;47.824;12.092;2022-07-29T00:57:12;96219.00;;;21.28;65.05
16094;BME280;8151;47.824;12.092;2022-07-29T00:59:41;96212.00;;;21.27;65.25
16094;BME280;8151;47.824;12.092;2022-07-29T01:02:10;96216.53;;;21.27;65.25
16094;BME280;8151;47.824;12.092;2022-07-29T01:04:39;96218.91;;;21.23;65.43
16094;BME280;8151;47.824;12.092;2022-07-29T01:07:08;96214.81;;;21.20;65.56
16094;BME280;8151;47.824;12.092;2022-07-29T01:09:37;96202.44;;;21.19;65.59
16094;BME280;8151;47.824;12.092;2022-07-29T01:12:17;96207.56;;;21.21;65.58
16094;BME280;8151;47.824;12.092;2022-07-29T01:14:47;96206.50;;;21.22;65.46
16094;BME280;8151;47.824;12.092;2022-07-29T01:17:20;96199.50;;;21.21;65.58
16094;BME280;8151;47.824;12.092;2022-07-29T01:19:54;96205.69;;;21.21;65.55
16094;BME280;8151;47.824;12.092;2022-07-29T01:22:28;96210.25;;;21.21;65.39
16094;BME280;8151;47.824;12.092;2022-07-29T01:25:19;96208.28;;;21.16;65.53
16094;BME280;8151;47.824;12.092;2022-07-29T01:28:12;96198.59;;;21.15;65.75
16094;BME280;8151;47.824;12.092;2022-07-29T01:30:51;96194.25;;;21.14;65.50
16094;BME280;8151;47.824;12.092;2022-07-29T01:33:24;96197.75;;;21.15;65.68
16094;BME280;8151;47.824;12.092;2022-07-29T01:36:12;96189.69;;;21.15;65.61
16094;BME280;8151;47.824;12.092;2022-07-29T01:38:43;96187.56;;;21.17;65.55
16094;BME280;8151;47.824;12.092;2022-07-29T01:41:16;96191.91;;;21.18;65.69
16094;BME280;8151;47.824;12.092;2022-07-29T01:43:49;96173.06;;;21.18;65.71
16094;BME280;8151;47.824;12.092;2022-07-29T01:46:25;96176.81;;;21.17;65.63
16094;BME280;8151;47.824;12.092;2022-07-29T01:48:59;96173.53;;;21.15;65.67
16094;BME280;8151;47.824;12.092;2022-07-29T01:51:34;96176.22;;;21.15;65.80
16094;BME280;8151;47.824;12.092;2022-07-29T01:54:06;96173.53;;;21.15;65.72
16094;BME280;8151;47.824;12.092;2022-07-29T01:56:38;96170.53;;;21.11;65.93
16094;BME280;8151;47.824;12.092;2022-07-29T01:59:08;96166.19;;;21.10;65.97
16094;BME280;8151;47.824;12.092;2022-07-29T02:01:40;96160.81;;;21.10;66.12
16094;BME280;8151;47.824;12.092;2022-07-29T02:04:10;96156.25;;;21.11;66.00
16094;BME280;8151;47.824;12.092;2022-07-29T02:07:00;96157.09;;;21.11;65.84
16094;BME280;8151;47.824;12.092;2022-07-29T02:09:30;96150.84;;;21.11;66.10
16094;BME280;8151;47.824;12.092;2022-07-29T02:12:00;96144.66;;;21.10;65.80
16094;BME280;8151;47.824;12.092;2022-07-29T02:14:34;96129.84;;;21.08;65.78
16094;BME280;8151;47.824;12.092;2022-07-29T02:17:05;96129.84;;;21.08;65.91
16094;BME280;8151;47.824;12.092;2022-07-29T02:19:36;96144.81;;;21.03;66.04
16094;BME280;8151;47.824;12.092;2022-07-29T02:22:06;96139.56;;;20.97;66.08
16094;BME280;8151;47.824;12.092;2022-07-29T02:24:37;96148.94;;;20.94;66.45
16094;BME280;8151;47.824;12.092;2022-07-29T02:27:07;96145.81;;;20.85;66.64
16094;BME280;8151;47.824;12.092;2022-07-29T02:29:37;96142.78;;;20.82;66.65
16094;BME280;8151;47.824;12.092;2022-07-29T02:32:10;96148.06;;;20.77;66.77
16094;BME280;8151;47.824;12.092;2022-07-29T02:34:41;96154.41;;;20.71;66.94
16094;BME280;8151;47.824;12.092;2022-07-29T02:37:11;96147.88;;;20.67;67.16
16094;BME280;8151;47.824;12.092;2022-07-29T02:39:42;96141.06;;;20.64;67.14
16094;BME280;8151;47.824;12.092;2022-07-29T02:42:13;96127.16;;;20.67;67.19
16094;BME280;8151;47.824;12.092;2022-07-29T02:44:43;96131.47;;;20.68;67.32
16094;BME280;8151;47.824;12.092;2022-07-29T02:47:17;96129.63;;;20.69;67.24
16094;BME280;8151;47.824;12.092;2022-07-29T02:49:53;96127.16;;;20.67;67.44
16094;BME280;8151;47.824;12.092;2022-07-29T02:52:26;96121.22;;;20.65;67.57
16094;BME280;8151;47.824;12.092;2022-07-29T02:55:00;96120.38;;;20.64;67.63
16094;BME280;8151;47.824;12.092;2022-07-29T02:57:32;96136.50;;;20.53;67.79
16094;BME280;8151;47.824;12.092;2022-07-29T03:00:23;96136.31;;;20.31;68.46
16094;BME280;8151;47.824;12.092;2022-07-29T03:02:58;96135.63;;;20.12;68.81
16094;BME280;8151;47.824;12.092;2022-07-29T03:05:29;96142.88;;;19.88;69.42
16094;BME280;8151;47.824;12.092;2022-07-29T03:08:01;96135.38;;;19.78;69.84
16094;BME280;8151;47.824;12.092;2022-07-29T03:10:31;96137.31;;;19.71;69.81
16094;BME280;8151;47.824;12.092;2022-07-29T03:13:00;96136.50;;;19.70;70.23
16094;BME280;8151;47.824;12.092;2022-07-29T03:15:29;96139.81;;;19.72;69.93
16094;BME280;8151;47.824;12.092;2022-07-29T03:18:00;96138.53;;;19.75;69.82
16094;BME280;8151;47.824;12.092;2022-07-29T03:20:28;96141.78;;;19.77;69.75
16094;BME280;8151;47.824;12.092;2022-07-29T03:22:57;96131.41;;;19.80;69.46
16094;BME280;8151;47.824;12.092;2022-07-29T03:25:26;96127.44;;;19.83;69.53
16094;BME280;8151;47.824;12.092;2022-07-29T03:27:55;96134.22;;;19.85;69.47
16094;BME280;8151;47.824;12.092;2022-07-29T03:30:23;96134.81;;;19.88;69.39
16094;BME280;8151;47.824;12.092;2022-07-29T03:32:53;96131.19;;;19.94;69.29
16094;BME280;8151;47.824;12.092;2022-07-29T03:35:26;96130.03;;;20.01;68.91
16094;BME280;8151;47.824;12.092;2022-07-29T03:37:55;96133.41;;;20.09;68.62
16094;BME280;8151;47.824;12.092;2022-07-29T03:40:28;96127.09;;;20.15;68.49
16094;BME280;8151;47.824;12.092;2022-07-29T03:43:00;96126.88;;;20.16;68.39
16094;BME280;8151;47.824;12.092;2022-07-29T03:45:30;96133.28;;;20.15;68.49
16094;BME280;8151;47.824;12.092;2022-07-29T03:48:03;96124.41;;;20.15;68.40
16094;BME280;8151;47.824;12.092;2022-07-29T03:50:35;96120.09;;;20.14;68.44
16094;BME280;8151;47.824;12.092;2022-07-29T03:53:04;96128.06;;;20.09;68.69
16094;BME280;8151;47.824;12.092;2022-07-29T03:55:41;96125.69;;;20.12;68.84
16094;BME280;8151;47.824;12.092;2022-07-29T03:58:10;96121.72;;;20.15;68.74
16094;BME280;8151;47.824;12.092;2022-07-29T04:00:41;96115.06;;;20.17;68.61
16094;BME280;8151;47.824;12.092;2022-07-29T04:03:11;96122.09;;;20.18;68.62
16094;BME280;8151;47.824;12.092;2022-07-29T04:05:43;96121.03;;;20.19;68.62
16094;BME280;8151;47.824;12.092;2022-07-29T04:08:11;96119.50;;;20.23;68.50
16094;BME280;8151;47.824;12.092;2022-07-29T04:10:40;96125.34;;;20.20;68.55
16094;BME280;8151;47.824;12.092;2022-07-29T04:13:11;96130.16;;;20.18;68.60
16094;BME280;8151;47.824;12.092;2022-07-29T04:15:39;96121.03;;;20.19;68.71
16094;BME280;8151;47.824;12.092;2022-07-29T04:18:08;96121.25;;;20.18;68.75
16094;BME280;8151;47.824;12.092;2022-07-29T04:20:36;96124.78;;;20.18;68.73
16094;BME280;8151;47.824;12.092;2022-07-29T04:23:06;96118.34;;;20.19;68.58
16094;BME280;8151;47.824;12.092;2022-07-29T04:25:37;96112.97;;;20.19;68.52
16094;BME280;8151;47.824;12.092;2022-07-29T04:28:06;96129.06;;;20.19;68.67
16094;BME280;8151;47.824;12.092;2022-07-29T04:30:36;96125.81;;;20.17;68.51
16094;BME280;8151;47.824;12.092;2022-07-29T04:33:05;96130.81;;;20.14;68.55
16094;BME280;8151;47.824;12.092;2022-07-29T04:35:36;96133.28;;;20.15;68.51
16094;BME280;8151;47.824;12.092;2022-07-29T04:38:18;96126.63;;;20.18;68.54
16094;BME280;8151;47.824;12.092;2022-07-29T04:40:46;96130.72;;;20.20;68.45
16094;BME280;8151;47.824;12.092;2022-07-29T04:43:16;96134.81;;;20.23;68.23
16094;BME280;8151;47.824;12.092;2022-07-29T04:45:48;96134.00;;;20.22;68.30
16094;BME280;8151;47.824;12.092;2022-07-29T04:48:17;96141.47;;;20.20;68.34
16094;BME280;8151;47.824;12.092;2022-07-29T04:50:50;96132.84;;;20.18;68.38
16094;BME280;8151;47.824;12.092;2022-07-29T04:53:20;96138.53;;;20.22;68.53
16094;BME280;8151;47.824;12.092;2022-07-29T04:55:48;96146.00;;;20.20;68.40
16094;BME280;8151;47.824;12.092;2022-07-29T04:58:17;96150.34;;;20.21;68.59
16094;BME280;8151;47.824;12.092;2022-07-29T05:00:45;96146.84;;;20.20;68.65
16094;BME280;8151;47.824;12.092;2022-07-29T05:03:14;96155.13;;;20.19;68.71
16094;BME280;8151;47.824;12.092;2022-07-29T05:05:44;96147.31;;;20.17;68.86
16094;BME280;8151;47.824;12.092;2022-07-29T05:08:13;96162.97;;;20.20;68.80
16094;BME280;8151;47.824;12.092;2022-07-29T05:10:43;96158.75;;;20.24;68.69
16094;BME280;8151;47.824;12.092;2022-07-29T05:13:11;96161.53;;;20.30;68.61
16094;BME280;8151;47.824;12.092;2022-07-29T05:15:40;96164.81;;;20.32;68.38
16094;BME280;8151;47.824;12.092;2022-07-29T05:18:09;96163.31;;;20.36;68.61
16094;BME280;8151;47.824;12.092;2022-07-29T05:20:37;96157.44;;;20.39;68.52
16094;BME280;8151;47.824;12.092;2022-07-29T05:23:06;96166.09;;;20.41;68.50
16094;BME280;8151;47.824;12.092;2022-07-29T05:25:34;96161.78;;;20.40;68.57
16094;BME280;8151;47.824;12.092;2022-07-29T05:28:12;96168.31;;;20.44;68.67
16094;BME280;8151;47.824;12.092;2022-07-29T05:30:41;96173.69;;;20.44;68.48
16094;BME280;8151;47.824;12.092;2022-07-29T05:33:11;96193.31;;;20.44;68.58
16094;BME280;8151;47.824;12.092;2022-07-29T05:35:59;96182.34;;;20.46;68.64
16094;BME280;8151;47.824;12.092;2022-07-29T05:38:28;96190.16;;;20.48;68.61
16094;BME280;8151;47.824;12.092;2022-07-29T05:40:57;96196.13;;;20.50;68.73
16094;BME280;8151;47.824;12.092;2022-07-29T05:43:28;96191.31;;;20.52;68.78
16094;BME280;8151;47.824;12.092;2022-07-29T05:45:57;96186.31;;;20.55;68.57
16094;BME280;8151;47.824;12.092;2022-07-29T05:48:26;96187.50;;;20.59;68.63
16094;BME280;8151;47.824;12.092;2022-07-29T05:50:55;96192.25;;;20.57;68.65
16094;BME280;8151;47.824;12.092;2022-07-29T05:53:23;96185.81;;;20.58;68.77
16094;BME280;8151;47.824;12.092;2022-07-29T05:55:52;96206.41;;;20.64;68.60
16094;BME280;8151;47.824;12.092;2022-07-29T05:58:21;96202.53;;;20.72;68.45
16094;BME280;8151;47.824;12.092;2022-07-29T06:00:50;96192.13;;;20.76;68.43
16094;BME280;8151;47.824;12.092;2022-07-29T06:03:19;96204.97;;;20.85;68.34
16094;BME280;8151;47.824;12.092;2022-07-29T06:05:48;96199.94;;;20.89;68.44
16094;BME280;8151;47.824;12.092;2022-07-29T06:08:16;96198.97;;;20.95;68.36
16094;BME280;8151;47.824;12.092;2022-07-29T06:10:45;96194.75;;;20.99;68.32
16094;BME280;8151;47.824;12.092;2022-07-29T06:13:13;96205.03;;;21.02;68.33
16094;BME280;8151;47.824;12.092;2022-07-29T06:15:44;96203.16;;;21.03;68.28
16094;BME280;8151;47.824;12.092;2022-07-29T06:18:14;96209.38;;;21.03;68.50
16094;BME280;8151;47.824;12.092;2022-07-29T06:20:43;96198.63;;;21.03;68.57
16094;BME280;8151;47.824;12.092;2022-07-29T06:23:12;96198.94;;;21.07;68.34
16094;BME280;8151;47.824;12.092;2022-07-29T06:25:40;96210.78;;;21.06;68.27
16094;BME280;8151;47.824;12.092;2022-07-29T06:28:10;96214.63;;;21.10;68.39
16094;BME280;8151;47.824;12.092;2022-07-29T06:30:38;96210.63;;;21.13;68.33
16094;BME280;8151;47.824;12.092;2022-07-29T06:33:07;96216.56;;;21.15;68.20
16094;BME280;8151;47.824;12.092;2022-07-29T06:35:37;96210.63;;;21.13;68.29
16094;BME280;8151;47.824;12.092;2022-07-29T06:38:08;96212.50;;;21.12;68.18
16094;BME280;8151;47.824;12.092;2022-07-29T06:40:58;96219.75;;;21.12;68.18
16094;BME280;8151;47.824;12.092;2022-07-29T06:43:32;96220.81;;;21.11;68.12
16094;BME280;8151;47.824;12.092;2022-07-29T06:46:18;96221.38;;;21.13;68.17
16094;BME280;8151;47.824;12.092;2022-07-29T06:48:48;96220.34;;;21.14;68.20
16094;BME280;8151;47.824;12.092;2022-07-29T06:51:18;96221.97;;;21.15;68.30
16094;BME280;8151;47.824;12.092;2022-07-29T06:53:50;96229.78;;;21.16;68.18
16094;BME280;8151;47.824;12.092;2022-07-29T06:56:30;96224.19;;;21.18;68.14
16094;BME280;8151;47.824;12.092;2022-07-29T06:59:06;96230.38;;;21.18;68.12
16094;BME280;8151;47.824;12.092;2022-07-29T07:01:36;96227.00;;;21.23;68.16
16094;BME280;8151;47.824;12.092;2022-07-29T07:04:05;96226.59;;;21.31;68.17
16094;BME280;8151;47.824;12.092;2022-07-29T07:06:37;96224.00;;;21.36;68.08
16094;BME280;8151;47.824;12.092;2022-07-29T07:09:06;96225.63;;;21.37;68.08
16094;BME280;8151;47.824;12.092;2022-07-29T07:11:35;96221.41;;;21.41;68.12
16094;BME280;8151;47.824;12.092;2022-07-29T07:14:04;96227.50;;;21.49;67.95
16094;BME280;8151;47.824;12.092;2022-07-29T07:16:32;96231.09;;;21.54;68.02
16094;BME280;8151;47.824;12.092;2022-07-29T07:19:01;96213.97;;;21.60;68.01
16094;BME280;8151;47.824;12.092;2022-07-29T07:21:29;96221.91;;;21.67;67.88
16094;BME280;8151;47.824;12.092;2022-07-29T07:26:28;96219.00;;;21.86;67.89
16094;BME280;8151;47.824;12.092;2022-07-29T07:28:56;96220.22;;;21.95;67.87
16094;BME280;8151;47.824;12.092;2022-07-29T07:31:25;96217.38;;;22.01;67.63
16094;BME280;8151;47.824;12.092;2022-07-29T07:33:54;96225.78;;;22.05;67.44
16094;BME280;8151;47.824;12.092;2022-07-29T07:36:23;96225.94;;;22.15;67.30
16094;BME280;8151;47.824;12.092;2022-07-29T07:38:51;96229.28;;;22.22;66.97
16094;BME280;8151;47.824;12.092;2022-07-29T07:41:22;96232.69;;;22.30;66.65
16094;BME280;8151;47.824;12.092;2022-07-29T07:43:51;96230.63;;;22.37;66.62
16094;BME280;8151;47.824;12.092;2022-07-29T07:46:20;96230.78;;;22.47;66.64
16094;BME280;8151;47.824;12.092;2022-07-29T07:48:48;96231.41;;;22.54;66.34
16094;BME280;8151;47.824;12.092;2022-07-29T07:51:17;96239.09;;;22.63;66.17
16094;BME280;8151;47.824;12.092;2022-07-29T07:53:46;96239.00;;;22.74;66.23
16094;BME280;8151;47.824;12.092;2022-07-29T07:56:16;96241.75;;;22.79;65.84
16094;BME280;8151;47.824;12.092;2022-07-29T07:58:46;96235.63;;;22.84;65.38
16094;BME280;8151;47.824;12.092;2022-07-29T08:01:14;96237.31;;;22.90;65.29
16094;BME280;8151;47.824;12.092;2022-07-29T08:03:46;96231.22;;;23.00;64.98
16094;BME280;8151;47.824;12.092;2022-07-29T08:06:14;96235.97;;;23.10;64.81
16094;BME280;8151;47.824;12.092;2022-07-29T08:08:43;96226.38;;;23.19;64.35
16094;BME280;8151;47.824;12.092;2022-07-29T08:11:11;96218.88;;;23.26;64.20
16094;BME280;8151;47.824;12.092;2022-07-29T08:13:40;96230.56;;;23.32;64.23
16094;BME280;8151;47.824;12.092;2022-07-29T08:16:10;96224.66;;;23.35;64.04
16094;BME280;8151;47.824;12.092;2022-07-29T08:18:44;96224.44;;;23.42;63.65
16094;BME280;8151;47.824;12.092;2022-07-29T08:21:13;96224.59;;;23.52;63.43
16094;BME280;8151;47.824;12.092;2022-07-29T08:23:43;96216.81;;;23.61;63.22
16094;BME280;8151;47.824;12.092;2022-07-29T08:26:27;96209.34;;;23.68;63.26
16094;BME280;8151;47.824;12.092;2022-07-29T08:28:55;96210.22;;;23.73;63.17
16094;BME280;8151;47.824;12.092;2022-07-29T08:31:25;96210.81;;;23.81;62.74
16094;BME280;8151;47.824;12.092;2022-07-29T08:33:54;96224.38;;;23.86;62.88
16094;BME280;8151;47.824;12.092;2022-07-29T08:36:23;96221.50;;;23.92;62.54
16094;BME280;8151;47.824;12.092;2022-07-29T08:38:52;96223.72;;;24.01;62.13
16094;BME280;8151;47.824;12.092;2022-07-29T08:41:21;96224.03;;;24.04;62.00
16094;BME280;8151;47.824;12.092;2022-07-29T08:43:50;96231.59;;;24.07;61.63
16094;BME280;8151;47.824;12.092;2022-07-29T08:46:19;96219.72;;;24.08;61.43
16094;BME280;8151;47.824;12.092;2022-07-29T08:48:49;96223.81;;;24.11;61.07
16094;BME280;8151;47.824;12.092;2022-07-29T08:51:19;96229.81;;;24.18;61.20
16094;BME280;8151;47.824;12.092;2022-07-29T08:53:49;96229.63;;;24.30;61.05
16094;BME280;8151;47.824;12.092;2022-07-29T08:56:19;96224.84;;;24.42;61.01
16094;BME280;8151;47.824;12.092;2022-07-29T08:58:49;96228.47;;;24.53;60.63
16094;BME280;8151;47.824;12.092;2022-07-29T09:01:23;96231.25;;;24.63;60.44
16094;BME280;8151;47.824;12.092;2022-07-29T09:04:11;96231.03;;;24.75;59.84
16094;BME280;8151;47.824;12.092;2022-07-29T09:06:43;96234.63;;;24.86;59.71
16094;BME280;8151;47.824;12.092;2022-07-29T09:09:13;96233.31;;;24.99;59.02
16094;BME280;8151;47.824;12.092;2022-07-29T09:11:42;96230.69;;;25.09;58.58
16094;BME280;8151;47.824;12.092;2022-07-29T09:14:12;96228.25;;;25.18;58.14
16094;BME280;8151;47.824;12.092;2022-07-29T09:16:48;96229.41;;;25.27;58.21
16094;BME280;8151;47.824;12.092;2022-07-29T09:19:30;96225.13;;;25.41;58.00
16094;BME280;8151;47.824;12.092;2022-07-29T09:21:59;96218.09;;;25.50;57.51
16094;BME280;8151;47.824;12.092;2022-07-29T09:24:37;96215.72;;;25.59;57.39
16094;BME280;8151;47.824;12.092;2022-07-29T09:27:19;96214.63;;;25.65;56.51
16094;BME280;8151;47.824;12.092;2022-07-29T09:29:59;96218.97;;;25.71;56.66
16094;BME280;8151;47.824;12.092;2022-07-29T09:32:28;96223.56;;;25.76;56.42
16094;BME280;8151;47.824;12.092;2022-07-29T09:35:18;96223.59;;;25.81;55.51
16094;BME280;8151;47.824;12.092;2022-07-29T09:37:47;96214.38;;;25.82;55.52
16094;BME280;8151;47.824;12.092;2022-07-29T09:40:17;96203.28;;;25.89;55.29
16094;BME280;8151;47.824;12.092;2022-07-29T09:42:46;96208.44;;;25.96;54.84
16094;BME280;8151;47.824;12.092;2022-07-29T09:45:27;96205.47;;;25.97;54.52
16094;BME280;8151;47.824;12.092;2022-07-29T09:47:56;96207.13;;;25.98;54.66
16094;BME280;8151;47.824;12.092;2022-07-29T09:50:39;96209.81;;;26.08;53.85
16094;BME280;8151;47.824;12.092;2022-07-29T09:53:09;96213.34;;;26.14;53.60
16094;BME280;8151;47.824;12.092;2022-07-29T09:55:47;96209.81;;;26.19;52.85
16094;BME280;8151;47.824;12.092;2022-07-29T09:58:19;96207.09;;;26.24;52.63
16094;BME280;8151;47.824;12.092;2022-07-29T10:00:49;96204.41;;;26.24;52.66
16094;BME280;8151;47.824;12.092;2022-07-29T10:03:19;96203.59;;;26.23;52.19
16094;BME280;8151;47.824;12.092;2022-07-29T10:08:44;96192.44;;;26.40;51.71
16094;BME280;8151;47.824;12.092;2022-07-29T10:11:13;96188.34;;;26.48;51.37
16094;BME280;8151;47.824;12.092;2022-07-29T10:13:44;96198.66;;;26.56;51.01
16094;BME280;8151;47.824;12.092;2022-07-29T10:16:13;96195.16;;;26.66;50.30
16094;BME280;8151;47.824;12.092;2022-07-29T10:18:43;96198.91;;;26.75;49.83
16094;BME280;8151;47.824;12.092;2022-07-29T10:21:14;96203.78;;;26.83;49.63
16094;BME280;8151;47.824;12.092;2022-07-29T10:24:05;96197.78;;;26.91;49.53
16094;BME280;8151;47.824;12.092;2022-07-29T10:26:42;96192.03;;;26.98;49.62
16094;BME280;8151;47.824;12.092;2022-07-29T10:29:11;96198.00;;;27.05;49.49
16094;BME280;8151;47.824;12.092;2022-07-29T10:31:47;96196.06;;;27.16;49.85
16094;BME280;8151;47.824;12.092;2022-07-29T10:34:25;96192.78;;;27.19;50.16
16094;BME280;8151;47.824;12.092;2022-07-29T10:37:06;96184.63;;;27.24;50.15
16094;BME280;8151;47.824;12.092;2022-07-29T10:39:45;96181.34;;;27.33;49.70
16094;BME280;8151;47.824;12.092;2022-07-29T10:42:19;96182.91;;;27.39;49.99
16094;BME280;8151;47.824;12.092;2022-07-29T10:45:01;96181.78;;;27.45;50.24
16094;BME280;8151;47.824;12.092;2022-07-29T10:47:32;96178.47;;;27.58;49.97
16094;BME280;8151;47.824;12.092;2022-07-29T10:50:04;96176.75;;;27.73;49.60
16094;BME280;8151;47.824;12.092;2022-07-29T10:52:57;96174.75;;;27.83;49.12
16094;BME280;8151;47.824;12.092;2022-07-29T10:55:38;96169.50;;;27.97;48.97
16094;BME280;8151;47.824;12.092;2022-07-29T10:58:12;96162.13;;;28.03;48.61
16094;BME280;8151;47.824;12.092;2022-07-29T11:00:41;96165.59;;;28.08;49.28
16094;BME280;8151;47.824;12.092;2022-07-29T11:03:45;96169.25;;;28.28;48.21
16094;BME280;8151;47.824;12.092;2022-07-29T11:06:17;96158.59;;;28.32;47.99
16094;BME280;8151;47.824;12.092;2022-07-29T11:09:17;96161.31;;;28.32;47.48
16094;BME280;8151;47.824;12.092;2022-07-29T11:12:03;96159.19;;;28.28;48.03
16094;BME280;8151;47.824;12.092;2022-07-29T11:14:57;96162.06;;;28.13;47.44
16094;BME280;8151;47.824;12.092;2022-07-29T11:17:26;96164.91;;;27.98;47.84
16094;BME280;8151;47.824;12.092;2022-07-29T11:20:31;96161.28;;;28.07;47.26
16094;BME280;8151;47.824;12.092;2022-07-29T11:23:18;96158.72;;;28.21;46.92
16094;BME280;8151;47.824;12.092;2022-07-29T11:26:14;96159.22;;;28.23;46.53
16094;BME280;8151;47.824;12.092;2022-07-29T11:29:16;96160.84;;;28.24;46.34
16094;BME280;8151;47.824;12.092;2022-07-29T11:31:47;96156.16;;;28.30;46.54
16094;BME280;8151;47.824;12.092;2022-07-29T11:34:24;96158.22;;;28.43;46.47
16094;BME280;8151;47.824;12.092;2022-07-29T11:37:28;96157.97;;;28.69;45.65
16094;BME280;8151;47.824;12.092;2022-07-29T11:40:16;96150.97;;;28.87;45.50
16094;BME280;8151;47.824;12.092;2022-07-29T11:42:50;96156.66;;;28.91;45.30
16094;BME280;8151;47.824;12.092;2022-07-29T11:45:25;96144.06;;;28.95;44.93
16094;BME280;8151;47.824;12.092;2022-07-29T11:48:18;96151.53;;;29.08;44.56
16094;BME280;8151;47.824;12.092;2022-07-29T11:50:59;96153.41;;;29.08;44.90
16094;BME280;8151;47.824;12.092;2022-07-29T11:53:29;96148.19;;;29.11;45.71
16094;BME280;8151;47.824;12.092;2022-07-29T11:56:01;96142.56;;;29.27;45.55
16094;BME280;8151;47.824;12.092;2022-07-29T11:58:30;96137.94;;;29.46;45.64
16094;BME280;8151;47.824;12.092;2022-07-29T12:01:01;96138.28;;;29.58;45.50
16094;BME280;8151;47.824;12.092;2022-07-29T12:03:31;96134.28;;;29.75;45.52
16094;BME280;8151;47.824;12.092;2022-07-29T12:06:03;96132.72;;;29.88;44.94
16094;BME280;8151;47.824;12.092;2022-07-29T12:08:41;96126.34;;;29.92;44.54
16094;BME280;8151;47.824;12.092;2022-07-29T12:11:18;96123.16;;;30.04;44.29
16094;BME280;8151;47.824;12.092;2022-07-29T12:13:50;96118.41;;;30.10;44.42
16094;BME280;8151;47.824;12.092;2022-07-29T12:16:20;96112.38;;;30.13;44.39
16094;BME280;8151;47.824;12.092;2022-07-29T12:18:58;96115.22;;;30.21;44.36
16094;BME280;8151;47.824;12.092;2022-07-29T12:21:29;96116.97;;;30.31;43.24
16094;BME280;8151;47.824;12.092;2022-07-29T12:23:58;96119.47;;;30.28;43.26
16094;BME280;8151;47.824;12.092;2022-07-29T12:26:36;96110.16;;;30.29;43.11
16094;BME280;8151;47.824;12.092;2022-07-29T12:29:07;96105.97;;;30.36;41.88
16094;BME280;8151;47.824;12.092;2022-07-29T12:31:52;96109.00;;;30.35;41.89
16094;BME280;8151;47.824;12.092;2022-07-29T12:34:26;96104.13;;;30.46;41.55
16094;BME280;8151;47.824;12.092;2022-07-29T12:36:56;96108.91;;;30.54;41.13
16094;BME280;8151;47.824;12.092;2022-07-29T12:39:25;96113.75;;;30.57;40.21
16094;BME280;8151;47.824;12.092;2022-07-29T12:41:55;96096.66;;;30.51;40.34
16094;BME280;8151;47.824;12.092;2022-07-29T12:44:44;96103.44;;;30.54;39.97
16094;BME280;8151;47.824;12.092;2022-07-29T12:47:15;96104.34;;;30.63;40.07
16094;BME280;8151;47.824;12.092;2022-07-29T12:49:45;96105.25;;;30.72;40.23
16094;BME280;8151;47.824;12.092;2022-07-29T12:52:25;96101.22;;;30.84;40.40
16094;BME280;8151;47.824;12.092;2022-07-29T12:54:53;96109.63;;;31.01;40.21
16094;BME280;8151;47.824;12.092;2022-07-29T12:57:22;96094.53;;;31.17;40.15
16094;BME280;8151;47.824;12.092;2022-07-29T13:00:05;96094.16;;;31.33;39.59
16094;BME280;8151;47.824;12.092;2022-07-29T13:02:36;96102.03;;;31.34;39.23
16094;BME280;8151;47.824;12.092;2022-07-29T13:05:06;96100.25;;;31.30;39.37
16094;BME280;8151;47.824;12.092;2022-07-29T13:07:36;96102.69;;;31.31;39.39
16094;BME280;8151;47.824;12.092;2022-07-29T13:10:22;96106.56;;;31.16;39.15
16094;BME280;8151;47.824;12.092;2022-07-29T13:13:04;96111.63;;;31.09;39.11
16094;BME280;8151;47.824;12.092;2022-07-29T13:15:34;96103.31;;;31.14;38.92
16094;BME280;8151;47.824;12.092;2022-07-29T13:18:05;96107.28;;;31.08;38.81
16094;BME280;8151;47.824;12.092;2022-07-29T13:20:54;96096.19;;;30.91;39.09
16094;BME280;8151;47.824;12.092;2022-07-29T13:23:22;96103.53;;;30.90;38.17
16094;BME280;8151;47.824;12.092;2022-07-29T13:25:51;96102.75;;;30.90;38.08
16094;BME280;8151;47.824;12.092;2022-07-29T13:28:23;96096.06;;;30.96;38.37
16094;BME280;8151;47.824;12.092;2022-07-29T13:30:52;96101.72;;;30.99;38.27
16094;BME280;8151;47.824;12.092;2022-07-29T13:33:22;96090.38;;;31.06;37.74
16094;BME280;8151;47.824;12.092;2022-07-29T13:35:51;96093.63;;;31.08;37.85